This is the latest recevied weather packets stored in our database for station/object KA1AL. If no packets are shown the sender has not sent any weather packets the latest 1 day(s).
| Time | Temp. | Humidity | Pressure | Rain* | Wind** | Luminosity | Snow |
|---|---|---|---|---|---|---|---|
| 1778008765 | 23.89° C | 56% | 1002.2 hPa | 0 mm | 6.26 m/s, 227° | 389 W/m² | - |
| 1778008464 | 23.89° C | 56% | 1002.3 hPa | 0 mm | 3.58 m/s, 218° | 624 W/m² | - |
| 1778008160 | 23.33° C | 56% | 1002.4 hPa | 0 mm | 5.81 m/s, 208° | 616 W/m² | - |
| 1778007855 | 23.33° C | 56% | 1002.5 hPa | 0 mm | 3.13 m/s, 203° | 536 W/m² | - |
| 1778007551 | 23.33° C | 56% | 1002.4 hPa | 0 mm | 3.58 m/s, 220° | 566 W/m² | - |
| 1778007248 | 23.33° C | 55% | 1002.5 hPa | 0 mm | 6.71 m/s, 207° | 576 W/m² | - |
| 1778006944 | 23.33° C | 56% | 1002.4 hPa | 0 mm | 5.81 m/s, 227° | 576 W/m² | - |
| 1778006641 | 22.78° C | 56% | 1002.6 hPa | 0 mm | 6.26 m/s, 233° | 594 W/m² | - |
| 1778006338 | 22.78° C | 56% | 1002.7 hPa | 0 mm | 4.47 m/s, 198° | 628 W/m² | - |
| 1778006035 | 22.78° C | 59% | 1002.8 hPa | 0 mm | 4.02 m/s, 190° | 585 W/m² | - |
| 1778005731 | 22.78° C | 57% | 1002.8 hPa | 0 mm | 8.94 m/s, 238° | 606 W/m² | - |
| 1778005428 | 22.78° C | 57% | 1003 hPa | 0 mm | 4.02 m/s, 253° | 628 W/m² | - |
| 1778005125 | 23.33° C | 56% | 1002.8 hPa | 0 mm | 5.81 m/s, 198° | 633 W/m² | - |
| 1778004822 | 23.33° C | 55% | 1002.8 hPa | 0 mm | 8.05 m/s, 179° | 642 W/m² | - |
| 1778004519 | 23.33° C | 55% | 1002.9 hPa | 0 mm | 5.36 m/s, 226° | 645 W/m² | - |
| 1778004215 | 23.33° C | 59% | 1002.8 hPa | 0 mm | 2.24 m/s, 188° | 656 W/m² | - |
| 1778003912 | 23.33° C | 56% | 1003.1 hPa | 0 mm | 8.05 m/s, 243° | 642 W/m² | - |
| 1778003608 | 23.33° C | 58% | 1003.2 hPa | 0 mm | 4.92 m/s, 217° | 650 W/m² | - |
| 1778003305 | 22.78° C | 57% | 1003.3 hPa | 0 mm | 4.47 m/s, 222° | 653 W/m² | - |
| 1778003003 | 22.78° C | 56% | 1003.5 hPa | 0 mm | 6.71 m/s, 214° | 641 W/m² | - |
| 1778002698 | 22.78° C | 58% | 1003.2 hPa | 0 mm | 2.68 m/s, 223° | 668 W/m² | - |
| 1778002395 | 22.78° C | 58% | 1003.6 hPa | 0 mm | 4.92 m/s, 154° | 649 W/m² | - |
| 1778002092 | 22.78° C | 55% | 1003.5 hPa | 0 mm | 7.15 m/s, 208° | 647 W/m² | - |
| 1778001790 | 22.78° C | 56% | 1003.7 hPa | 0 mm | 4.02 m/s, 211° | 640 W/m² | - |
| 1778001484 | 22.22° C | 57% | 1003.8 hPa | 0 mm | 2.24 m/s, 232° | 638 W/m² | - |
* Rain latest hour (hover to see other rain measurements)
** Current wind speed in m/s (hover to see current wind gust speed)